sensor_id;sensor_type;location;lat;lon;timestamp;P1;durP1;ratioP1;P2;durP2;ratioP2
34928;SDS011;21133;48.048;7.724;2022-12-07T00:01:42;9.67;;;7.70;;
34928;SDS011;21133;48.048;7.724;2022-12-07T00:04:13;8.00;;;7.23;;
34928;SDS011;21133;48.048;7.724;2022-12-07T00:06:40;14.77;;;8.47;;
34928;SDS011;21133;48.048;7.724;2022-12-07T00:09:07;8.83;;;7.97;;
34928;SDS011;21133;48.048;7.724;2022-12-07T00:11:33;9.17;;;8.27;;
34928;SDS011;21133;48.048;7.724;2022-12-07T00:14:00;9.30;;;7.47;;
34928;SDS011;21133;48.048;7.724;2022-12-07T00:16:28;8.60;;;7.80;;
34928;SDS011;21133;48.048;7.724;2022-12-07T00:18:54;10.60;;;8.23;;
34928;SDS011;21133;48.048;7.724;2022-12-07T00:21:23;9.00;;;8.20;;
34928;SDS011;21133;48.048;7.724;2022-12-07T00:23:51;7.30;;;6.70;;
34928;SDS011;21133;48.048;7.724;2022-12-07T00:26:24;9.37;;;8.47;;
34928;SDS011;21133;48.048;7.724;2022-12-07T00:28:52;9.63;;;8.63;;
34928;SDS011;21133;48.048;7.724;2022-12-07T00:31:20;9.93;;;8.93;;
34928;SDS011;21133;48.048;7.724;2022-12-07T00:33:46;9.47;;;8.50;;
34928;SDS011;21133;48.048;7.724;2022-12-07T00:36:14;7.47;;;6.87;;
34928;SDS011;21133;48.048;7.724;2022-12-07T00:38:41;9.23;;;7.70;;
34928;SDS011;21133;48.048;7.724;2022-12-07T00:41:09;15.43;;;8.07;;
34928;SDS011;21133;48.048;7.724;2022-12-07T00:43:35;10.30;;;8.40;;
34928;SDS011;21133;48.048;7.724;2022-12-07T00:46:01;8.03;;;7.33;;
34928;SDS011;21133;48.048;7.724;2022-12-07T00:48:27;9.90;;;8.60;;
34928;SDS011;21133;48.048;7.724;2022-12-07T00:50:53;9.57;;;8.47;;
34928;SDS011;21133;48.048;7.724;2022-12-07T00:53:19;10.93;;;9.10;;
34928;SDS011;21133;48.048;7.724;2022-12-07T00:55:45;9.83;;;8.87;;
34928;SDS011;21133;48.048;7.724;2022-12-07T00:58:11;7.67;;;7.07;;
34928;SDS011;21133;48.048;7.724;2022-12-07T01:00:38;9.17;;;7.67;;
34928;SDS011;21133;48.048;7.724;2022-12-07T01:03:05;12.23;;;7.60;;
34928;SDS011;21133;48.048;7.724;2022-12-07T01:05:31;10.47;;;9.33;;
34928;SDS011;21133;48.048;7.724;2022-12-07T01:07:57;14.93;;;8.40;;
34928;SDS011;21133;48.048;7.724;2022-12-07T01:10:23;8.70;;;7.90;;
34928;SDS011;21133;48.048;7.724;2022-12-07T01:12:49;9.77;;;8.20;;
34928;SDS011;21133;48.048;7.724;2022-12-07T01:15:15;8.97;;;7.97;;
34928;SDS011;21133;48.048;7.724;2022-12-07T01:17:41;11.20;;;8.13;;
34928;SDS011;21133;48.048;7.724;2022-12-07T01:20:07;13.43;;;9.37;;
34928;SDS011;21133;48.048;7.724;2022-12-07T01:22:42;12.17;;;8.20;;
34928;SDS011;21133;48.048;7.724;2022-12-07T01:25:09;12.43;;;8.67;;
34928;SDS011;21133;48.048;7.724;2022-12-07T01:27:36;12.77;;;8.67;;
34928;SDS011;21133;48.048;7.724;2022-12-07T01:30:02;10.70;;;7.90;;
34928;SDS011;21133;48.048;7.724;2022-12-07T01:32:29;8.83;;;8.03;;
34928;SDS011;21133;48.048;7.724;2022-12-07T01:34:55;13.90;;;9.00;;
34928;SDS011;21133;48.048;7.724;2022-12-07T01:37:21;8.37;;;7.60;;
34928;SDS011;21133;48.048;7.724;2022-12-07T01:39:50;9.57;;;7.80;;
34928;SDS011;21133;48.048;7.724;2022-12-07T01:42:17;7.47;;;6.77;;
34928;SDS011;21133;48.048;7.724;2022-12-07T01:47:28;10.30;;;8.03;;
34928;SDS011;21133;48.048;7.724;2022-12-07T01:49:54;10.23;;;7.70;;
34928;SDS011;21133;48.048;7.724;2022-12-07T01:52:21;10.00;;;7.87;;
34928;SDS011;21133;48.048;7.724;2022-12-07T01:54:49;9.30;;;7.13;;
34928;SDS011;21133;48.048;7.724;2022-12-07T01:57:16;7.80;;;7.10;;
34928;SDS011;21133;48.048;7.724;2022-12-07T01:59:43;8.27;;;7.17;;
34928;SDS011;21133;48.048;7.724;2022-12-07T02:02:13;8.27;;;7.00;;
34928;SDS011;21133;48.048;7.724;2022-12-07T02:04:43;8.47;;;7.13;;
34928;SDS011;21133;48.048;7.724;2022-12-07T02:07:09;7.73;;;6.93;;
34928;SDS011;21133;48.048;7.724;2022-12-07T02:09:36;9.60;;;6.87;;
34928;SDS011;21133;48.048;7.724;2022-12-07T02:12:02;7.30;;;6.70;;
34928;SDS011;21133;48.048;7.724;2022-12-07T02:14:28;9.47;;;7.87;;
34928;SDS011;21133;48.048;7.724;2022-12-07T02:17:12;7.27;;;6.37;;
34928;SDS011;21133;48.048;7.724;2022-12-07T02:25:16;9.07;;;6.73;;
34928;SDS011;21133;48.048;7.724;2022-12-07T02:27:46;7.90;;;7.10;;
34928;SDS011;21133;48.048;7.724;2022-12-07T02:30:14;9.90;;;8.43;;
34928;SDS011;21133;48.048;7.724;2022-12-07T02:37:55;10.20;;;8.00;;
34928;SDS011;21133;48.048;7.724;2022-12-07T02:40:31;9.17;;;6.73;;
34928;SDS011;21133;48.048;7.724;2022-12-07T02:43:02;10.10;;;7.27;;
34928;SDS011;21133;48.048;7.724;2022-12-07T02:45:29;8.60;;;7.80;;
34928;SDS011;21133;48.048;7.724;2022-12-07T02:47:57;12.10;;;7.87;;
34928;SDS011;21133;48.048;7.724;2022-12-07T02:50:24;9.13;;;8.20;;
34928;SDS011;21133;48.048;7.724;2022-12-07T02:52:51;12.43;;;8.83;;
34928;SDS011;21133;48.048;7.724;2022-12-07T02:55:18;6.97;;;6.27;;
34928;SDS011;21133;48.048;7.724;2022-12-07T02:57:50;13.27;;;8.23;;
34928;SDS011;21133;48.048;7.724;2022-12-07T03:00:20;9.77;;;7.43;;
34928;SDS011;21133;48.048;7.724;2022-12-07T03:02:49;8.97;;;7.93;;
34928;SDS011;21133;48.048;7.724;2022-12-07T03:08:06;8.73;;;7.53;;
34928;SDS011;21133;48.048;7.724;2022-12-07T03:13:10;12.63;;;8.77;;
34928;SDS011;21133;48.048;7.724;2022-12-07T03:18:04;8.50;;;7.60;;
34928;SDS011;21133;48.048;7.724;2022-12-07T03:20:31;12.57;;;9.10;;
34928;SDS011;21133;48.048;7.724;2022-12-07T03:22:58;8.87;;;7.77;;
34928;SDS011;21133;48.048;7.724;2022-12-07T03:25:25;14.40;;;8.60;;
34928;SDS011;21133;48.048;7.724;2022-12-07T03:27:53;8.70;;;7.70;;
34928;SDS011;21133;48.048;7.724;2022-12-07T03:30:24;10.47;;;8.00;;
34928;SDS011;21133;48.048;7.724;2022-12-07T03:32:58;10.17;;;8.23;;
34928;SDS011;21133;48.048;7.724;2022-12-07T03:35:27;12.57;;;8.27;;
34928;SDS011;21133;48.048;7.724;2022-12-07T03:40:34;10.40;;;8.33;;
34928;SDS011;21133;48.048;7.724;2022-12-07T03:43:00;8.57;;;7.60;;
34928;SDS011;21133;48.048;7.724;2022-12-07T03:46:05;12.33;;;8.17;;
34928;SDS011;21133;48.048;7.724;2022-12-07T03:51:06;11.63;;;8.10;;
34928;SDS011;21133;48.048;7.724;2022-12-07T03:53:36;10.27;;;8.13;;
34928;SDS011;21133;48.048;7.724;2022-12-07T03:56:05;8.93;;;8.10;;
34928;SDS011;21133;48.048;7.724;2022-12-07T03:58:32;8.83;;;7.93;;
34928;SDS011;21133;48.048;7.724;2022-12-07T04:00:58;8.90;;;8.00;;
34928;SDS011;21133;48.048;7.724;2022-12-07T04:03:24;9.93;;;7.47;;
34928;SDS011;21133;48.048;7.724;2022-12-07T04:05:50;9.53;;;8.60;;
34928;SDS011;21133;48.048;7.724;2022-12-07T04:08:16;8.83;;;7.07;;
34928;SDS011;21133;48.048;7.724;2022-12-07T04:10:42;10.30;;;7.10;;
34928;SDS011;21133;48.048;7.724;2022-12-07T04:13:08;8.30;;;7.50;;
34928;SDS011;21133;48.048;7.724;2022-12-07T04:15:34;10.20;;;8.20;;
34928;SDS011;21133;48.048;7.724;2022-12-07T04:18:00;9.47;;;8.47;;
34928;SDS011;21133;48.048;7.724;2022-12-07T04:20:26;8.77;;;7.90;;
34928;SDS011;21133;48.048;7.724;2022-12-07T04:22:52;8.77;;;7.97;;
34928;SDS011;21133;48.048;7.724;2022-12-07T04:25:18;8.00;;;7.17;;
34928;SDS011;21133;48.048;7.724;2022-12-07T04:27:44;7.90;;;7.07;;
34928;SDS011;21133;48.048;7.724;2022-12-07T04:30:10;11.90;;;7.73;;
34928;SDS011;21133;48.048;7.724;2022-12-07T04:32:36;8.30;;;7.50;;
34928;SDS011;21133;48.048;7.724;2022-12-07T04:35:02;7.17;;;6.57;;
34928;SDS011;21133;48.048;7.724;2022-12-07T04:37:28;8.70;;;7.20;;
34928;SDS011;21133;48.048;7.724;2022-12-07T04:39:54;8.80;;;7.30;;
34928;SDS011;21133;48.048;7.724;2022-12-07T04:42:20;8.43;;;7.33;;
34928;SDS011;21133;48.048;7.724;2022-12-07T04:44:46;8.00;;;7.17;;
34928;SDS011;21133;48.048;7.724;2022-12-07T04:47:12;9.77;;;8.77;;
34928;SDS011;21133;48.048;7.724;2022-12-07T04:49:38;9.63;;;8.03;;
34928;SDS011;21133;48.048;7.724;2022-12-07T04:52:04;11.43;;;7.77;;
34928;SDS011;21133;48.048;7.724;2022-12-07T04:54:30;7.57;;;6.83;;
34928;SDS011;21133;48.048;7.724;2022-12-07T04:56:56;8.40;;;7.60;;
34928;SDS011;21133;48.048;7.724;2022-12-07T04:59:22;7.70;;;7.00;;
34928;SDS011;21133;48.048;7.724;2022-12-07T05:01:48;11.00;;;7.50;;
34928;SDS011;21133;48.048;7.724;2022-12-07T05:04:14;9.37;;;7.83;;
34928;SDS011;21133;48.048;7.724;2022-12-07T05:06:41;8.00;;;7.20;;
34928;SDS011;21133;48.048;7.724;2022-12-07T05:09:07;9.23;;;8.10;;
34928;SDS011;21133;48.048;7.724;2022-12-07T05:11:33;11.60;;;9.37;;
34928;SDS011;21133;48.048;7.724;2022-12-07T05:16:33;10.80;;;8.07;;
34928;SDS011;21133;48.048;7.724;2022-12-07T05:18:59;8.00;;;7.20;;
34928;SDS011;21133;48.048;7.724;2022-12-07T05:21:25;7.90;;;7.10;;
34928;SDS011;21133;48.048;7.724;2022-12-07T05:23:51;9.10;;;8.20;;
34928;SDS011;21133;48.048;7.724;2022-12-07T05:26:17;8.17;;;7.17;;
34928;SDS011;21133;48.048;7.724;2022-12-07T05:28:43;8.30;;;6.83;;
34928;SDS011;21133;48.048;7.724;2022-12-07T05:31:09;8.33;;;6.63;;
34928;SDS011;21133;48.048;7.724;2022-12-07T05:33:35;13.90;;;7.90;;
34928;SDS011;21133;48.048;7.724;2022-12-07T05:36:01;9.00;;;8.10;;
34928;SDS011;21133;48.048;7.724;2022-12-07T05:38:30;16.60;;;11.40;;
34928;SDS011;21133;48.048;7.724;2022-12-07T05:40:59;12.63;;;9.80;;
34928;SDS011;21133;48.048;7.724;2022-12-07T05:43:26;13.60;;;9.57;;
34928;SDS011;21133;48.048;7.724;2022-12-07T05:45:52;14.00;;;10.30;;
34928;SDS011;21133;48.048;7.724;2022-12-07T05:48:18;14.23;;;11.10;;
34928;SDS011;21133;48.048;7.724;2022-12-07T05:50:46;13.33;;;9.80;;
34928;SDS011;21133;48.048;7.724;2022-12-07T05:53:12;15.60;;;10.67;;
34928;SDS011;21133;48.048;7.724;2022-12-07T05:55:38;15.57;;;10.77;;
34928;SDS011;21133;48.048;7.724;2022-12-07T05:58:04;15.23;;;10.20;;
34928;SDS011;21133;48.048;7.724;2022-12-07T06:00:49;15.80;;;9.07;;
34928;SDS011;21133;48.048;7.724;2022-12-07T06:03:15;12.93;;;9.10;;
34928;SDS011;21133;48.048;7.724;2022-12-07T06:05:41;9.30;;;8.40;;
34928;SDS011;21133;48.048;7.724;2022-12-07T06:08:07;24.70;;;11.83;;
34928;SDS011;21133;48.048;7.724;2022-12-07T06:10:33;18.70;;;11.40;;
34928;SDS011;21133;48.048;7.724;2022-12-07T06:12:59;19.63;;;13.10;;
34928;SDS011;21133;48.048;7.724;2022-12-07T06:15:25;21.37;;;12.50;;
34928;SDS011;21133;48.048;7.724;2022-12-07T06:17:51;20.67;;;13.57;;
34928;SDS011;21133;48.048;7.724;2022-12-07T06:20:17;34.93;;;18.57;;
34928;SDS011;21133;48.048;7.724;2022-12-07T06:22:43;30.90;;;16.27;;
34928;SDS011;21133;48.048;7.724;2022-12-07T06:25:09;20.93;;;11.40;;
34928;SDS011;21133;48.048;7.724;2022-12-07T06:27:35;16.17;;;10.30;;
34928;SDS011;21133;48.048;7.724;2022-12-07T06:30:01;12.67;;;9.87;;
34928;SDS011;21133;48.048;7.724;2022-12-07T06:32:31;11.83;;;8.60;;
34928;SDS011;21133;48.048;7.724;2022-12-07T06:34:57;8.37;;;7.60;;
34928;SDS011;21133;48.048;7.724;2022-12-07T06:37:23;12.23;;;9.40;;
34928;SDS011;21133;48.048;7.724;2022-12-07T06:39:49;7.80;;;7.10;;
34928;SDS011;21133;48.048;7.724;2022-12-07T06:42:15;12.70;;;8.50;;
34928;SDS011;21133;48.048;7.724;2022-12-07T06:44:41;9.23;;;8.33;;
34928;SDS011;21133;48.048;7.724;2022-12-07T06:47:07;9.27;;;8.30;;
34928;SDS011;21133;48.048;7.724;2022-12-07T06:49:34;8.93;;;7.70;;
34928;SDS011;21133;48.048;7.724;2022-12-07T06:52:00;9.53;;;8.20;;
34928;SDS011;21133;48.048;7.724;2022-12-07T06:54:26;9.27;;;8.17;;
34928;SDS011;21133;48.048;7.724;2022-12-07T06:56:55;9.70;;;7.87;;
34928;SDS011;21133;48.048;7.724;2022-12-07T06:59:21;14.57;;;8.27;;
34928;SDS011;21133;48.048;7.724;2022-12-07T07:01:47;11.60;;;9.13;;
34928;SDS011;21133;48.048;7.724;2022-12-07T07:04:13;11.67;;;9.80;;
34928;SDS011;21133;48.048;7.724;2022-12-07T07:06:39;17.70;;;11.47;;
34928;SDS011;21133;48.048;7.724;2022-12-07T07:09:05;11.87;;;9.53;;
34928;SDS011;21133;48.048;7.724;2022-12-07T07:11:31;13.77;;;9.30;;
34928;SDS011;21133;48.048;7.724;2022-12-07T07:13:57;14.53;;;9.07;;
34928;SDS011;21133;48.048;7.724;2022-12-07T07:16:27;13.80;;;9.90;;
34928;SDS011;21133;48.048;7.724;2022-12-07T07:18:53;55.77;;;13.80;;
34928;SDS011;21133;48.048;7.724;2022-12-07T07:21:19;22.07;;;10.23;;
34928;SDS011;21133;48.048;7.724;2022-12-07T07:23:45;39.63;;;11.40;;
34928;SDS011;21133;48.048;7.724;2022-12-07T07:26:11;19.00;;;10.63;;
34928;SDS011;21133;48.048;7.724;2022-12-07T07:28:37;25.93;;;13.43;;
34928;SDS011;21133;48.048;7.724;2022-12-07T07:31:03;32.43;;;13.33;;
34928;SDS011;21133;48.048;7.724;2022-12-07T07:33:29;21.57;;;13.30;;
34928;SDS011;21133;48.048;7.724;2022-12-07T07:35:55;23.47;;;13.87;;
34928;SDS011;21133;48.048;7.724;2022-12-07T07:38:21;24.13;;;10.53;;
34928;SDS011;21133;48.048;7.724;2022-12-07T07:40:47;14.80;;;10.80;;
34928;SDS011;21133;48.048;7.724;2022-12-07T07:43:13;11.53;;;10.27;;
34928;SDS011;21133;48.048;7.724;2022-12-07T07:45:39;8.50;;;7.50;;
34928;SDS011;21133;48.048;7.724;2022-12-07T07:48:05;8.43;;;6.30;;
34928;SDS011;21133;48.048;7.724;2022-12-07T07:50:31;9.27;;;7.03;;
34928;SDS011;21133;48.048;7.724;2022-12-07T07:52:57;8.03;;;7.23;;
34928;SDS011;21133;48.048;7.724;2022-12-07T07:55:23;7.03;;;6.43;;
34928;SDS011;21133;48.048;7.724;2022-12-07T07:57:49;13.00;;;8.63;;
34928;SDS011;21133;48.048;7.724;2022-12-07T08:00:15;11.47;;;8.60;;
34928;SDS011;21133;48.048;7.724;2022-12-07T08:02:42;8.43;;;7.63;;
34928;SDS011;21133;48.048;7.724;2022-12-07T08:05:08;8.23;;;7.53;;
34928;SDS011;21133;48.048;7.724;2022-12-07T08:07:34;32.73;;;8.77;;
34928;SDS011;21133;48.048;7.724;2022-12-07T08:10:00;45.93;;;9.43;;
34928;SDS011;21133;48.048;7.724;2022-12-07T08:12:26;36.33;;;8.57;;
34928;SDS011;21133;48.048;7.724;2022-12-07T08:14:52;24.77;;;8.77;;
34928;SDS011;21133;48.048;7.724;2022-12-07T08:17:18;21.73;;;7.00;;
34928;SDS011;21133;48.048;7.724;2022-12-07T08:19:44;12.80;;;7.63;;
34928;SDS011;21133;48.048;7.724;2022-12-07T08:22:10;11.33;;;7.93;;
34928;SDS011;21133;48.048;7.724;2022-12-07T08:24:36;8.60;;;7.40;;
34928;SDS011;21133;48.048;7.724;2022-12-07T08:27:02;12.80;;;8.53;;
34928;SDS011;21133;48.048;7.724;2022-12-07T08:29:28;9.27;;;8.13;;
34928;SDS011;21133;48.048;7.724;2022-12-07T08:31:55;8.17;;;7.20;;
34928;SDS011;21133;48.048;7.724;2022-12-07T08:34:21;12.43;;;8.30;;
34928;SDS011;21133;48.048;7.724;2022-12-07T08:36:47;12.33;;;8.33;;
34928;SDS011;21133;48.048;7.724;2022-12-07T08:39:13;9.80;;;8.33;;
34928;SDS011;21133;48.048;7.724;2022-12-07T08:41:39;12.97;;;8.50;;
34928;SDS011;21133;48.048;7.724;2022-12-07T08:44:05;12.67;;;9.27;;
34928;SDS011;21133;48.048;7.724;2022-12-07T08:46:33;14.43;;;10.23;;
34928;SDS011;21133;48.048;7.724;2022-12-07T08:49:04;15.60;;;10.30;;
34928;SDS011;21133;48.048;7.724;2022-12-07T08:51:31;12.23;;;8.47;;
34928;SDS011;21133;48.048;7.724;2022-12-07T08:53:57;10.47;;;8.53;;
34928;SDS011;21133;48.048;7.724;2022-12-07T08:56:24;11.77;;;10.20;;
34928;SDS011;21133;48.048;7.724;2022-12-07T08:58:50;12.33;;;9.30;;
34928;SDS011;21133;48.048;7.724;2022-12-07T09:01:16;10.80;;;8.67;;
34928;SDS011;21133;48.048;7.724;2022-12-07T09:03:42;14.37;;;10.03;;
34928;SDS011;21133;48.048;7.724;2022-12-07T09:06:08;12.60;;;10.47;;
34928;SDS011;21133;48.048;7.724;2022-12-07T09:08:39;21.23;;;15.40;;
34928;SDS011;21133;48.048;7.724;2022-12-07T09:11:06;16.60;;;12.17;;
34928;SDS011;21133;48.048;7.724;2022-12-07T09:13:32;18.63;;;11.53;;
34928;SDS011;21133;48.048;7.724;2022-12-07T09:15:58;16.53;;;10.40;;
34928;SDS011;21133;48.048;7.724;2022-12-07T09:18:24;15.40;;;9.10;;
34928;SDS011;21133;48.048;7.724;2022-12-07T09:20:50;13.67;;;9.73;;
34928;SDS011;21133;48.048;7.724;2022-12-07T09:23:16;10.70;;;9.17;;
34928;SDS011;21133;48.048;7.724;2022-12-07T09:25:42;15.90;;;9.73;;
34928;SDS011;21133;48.048;7.724;2022-12-07T09:28:08;14.07;;;10.33;;
34928;SDS011;21133;48.048;7.724;2022-12-07T09:30:34;21.17;;;11.00;;
34928;SDS011;21133;48.048;7.724;2022-12-07T09:33:01;24.37;;;12.50;;
34928;SDS011;21133;48.048;7.724;2022-12-07T09:35:27;23.67;;;12.47;;
34928;SDS011;21133;48.048;7.724;2022-12-07T09:37:53;11.40;;;9.87;;
34928;SDS011;21133;48.048;7.724;2022-12-07T09:40:19;9.43;;;8.07;;
34928;SDS011;21133;48.048;7.724;2022-12-07T09:42:47;10.07;;;8.07;;
34928;SDS011;21133;48.048;7.724;2022-12-07T09:45:14;9.33;;;7.83;;
34928;SDS011;21133;48.048;7.724;2022-12-07T09:47:41;7.90;;;7.10;;
34928;SDS011;21133;48.048;7.724;2022-12-07T09:50:10;8.53;;;7.50;;
34928;SDS011;21133;48.048;7.724;2022-12-07T09:52:37;9.77;;;8.80;;
34928;SDS011;21133;48.048;7.724;2022-12-07T09:55:08;8.53;;;7.70;;
34928;SDS011;21133;48.048;7.724;2022-12-07T09:57:34;11.77;;;8.70;;
34928;SDS011;21133;48.048;7.724;2022-12-07T10:00:04;10.80;;;9.30;;
34928;SDS011;21133;48.048;7.724;2022-12-07T10:02:37;10.87;;;8.30;;
34928;SDS011;21133;48.048;7.724;2022-12-07T10:05:07;10.80;;;8.10;;
34928;SDS011;21133;48.048;7.724;2022-12-07T10:07:36;9.07;;;8.17;;
34928;SDS011;21133;48.048;7.724;2022-12-07T10:10:03;12.10;;;10.07;;
34928;SDS011;21133;48.048;7.724;2022-12-07T10:12:29;12.90;;;8.47;;
34928;SDS011;21133;48.048;7.724;2022-12-07T10:17:28;9.03;;;8.23;;
34928;SDS011;21133;48.048;7.724;2022-12-07T10:20:11;9.13;;;8.30;;
34928;SDS011;21133;48.048;7.724;2022-12-07T10:22:38;8.03;;;7.43;;
34928;SDS011;21133;48.048;7.724;2022-12-07T10:25:19;6.80;;;6.30;;
34928;SDS011;21133;48.048;7.724;2022-12-07T10:30:28;6.83;;;6.07;;
34928;SDS011;21133;48.048;7.724;2022-12-07T10:32:54;7.67;;;6.30;;
34928;SDS011;21133;48.048;7.724;2022-12-07T10:35:22;11.87;;;10.63;;
34928;SDS011;21133;48.048;7.724;2022-12-07T10:37:48;7.63;;;6.50;;
34928;SDS011;21133;48.048;7.724;2022-12-07T10:40:33;7.10;;;6.43;;
34928;SDS011;21133;48.048;7.724;2022-12-07T10:43:04;6.57;;;6.10;;
34928;SDS011;21133;48.048;7.724;2022-12-07T10:45:30;5.77;;;5.37;;
34928;SDS011;21133;48.048;7.724;2022-12-07T10:48:06;6.03;;;5.53;;
34928;SDS011;21133;48.048;7.724;2022-12-07T10:53:06;7.93;;;5.40;;
34928;SDS011;21133;48.048;7.724;2022-12-07T11:01:12;5.70;;;5.27;;
34928;SDS011;21133;48.048;7.724;2022-12-07T11:06:26;6.03;;;4.93;;
34928;SDS011;21133;48.048;7.724;2022-12-07T11:09:16;5.53;;;5.07;;
34928;SDS011;21133;48.048;7.724;2022-12-07T11:17:05;5.23;;;4.90;;
34928;SDS011;21133;48.048;7.724;2022-12-07T11:27:30;4.20;;;3.90;;
34928;SDS011;21133;48.048;7.724;2022-12-07T11:30:02;4.83;;;4.50;;
34928;SDS011;21133;48.048;7.724;2022-12-07T11:37:47;16.40;;;4.50;;
34928;SDS011;21133;48.048;7.724;2022-12-07T11:40:25;4.80;;;4.50;;
34928;SDS011;21133;48.048;7.724;2022-12-07T11:42:58;4.73;;;4.33;;
34928;SDS011;21133;48.048;7.724;2022-12-07T11:45:29;7.43;;;6.37;;
34928;SDS011;21133;48.048;7.724;2022-12-07T11:48:06;5.33;;;3.63;;
34928;SDS011;21133;48.048;7.724;2022-12-07T11:51:09;3.33;;;3.23;;
34928;SDS011;21133;48.048;7.724;2022-12-07T11:53:35;3.50;;;3.30;;
34928;SDS011;21133;48.048;7.724;2022-12-07T11:56:05;2.80;;;2.70;;
34928;SDS011;21133;48.048;7.724;2022-12-07T11:58:45;4.83;;;3.43;;
34928;SDS011;21133;48.048;7.724;2022-12-07T12:03:44;13.23;;;6.23;;
34928;SDS011;21133;48.048;7.724;2022-12-07T12:06:11;7.40;;;4.90;;
34928;SDS011;21133;48.048;7.724;2022-12-07T12:21:16;4.00;;;3.70;;
34928;SDS011;21133;48.048;7.724;2022-12-07T12:23:43;3.47;;;3.37;;
34928;SDS011;21133;48.048;7.724;2022-12-07T12:26:15;3.77;;;3.63;;
34928;SDS011;21133;48.048;7.724;2022-12-07T12:33:44;6.27;;;4.40;;
34928;SDS011;21133;48.048;7.724;2022-12-07T12:38:50;3.77;;;3.57;;
34928;SDS011;21133;48.048;7.724;2022-12-07T12:46:59;5.43;;;4.90;;
34928;SDS011;21133;48.048;7.724;2022-12-07T12:49:40;3.93;;;3.73;;
34928;SDS011;21133;48.048;7.724;2022-12-07T12:57:29;5.17;;;4.80;;
34928;SDS011;21133;48.048;7.724;2022-12-07T12:59:56;6.23;;;4.20;;
34928;SDS011;21133;48.048;7.724;2022-12-07T13:02:23;4.87;;;4.30;;
34928;SDS011;21133;48.048;7.724;2022-12-07T13:10:01;4.93;;;4.27;;
34928;SDS011;21133;48.048;7.724;2022-12-07T13:12:27;8.30;;;4.10;;
34928;SDS011;21133;48.048;7.724;2022-12-07T13:14:54;7.03;;;5.30;;
34928;SDS011;21133;48.048;7.724;2022-12-07T13:27:29;4.00;;;3.70;;
34928;SDS011;21133;48.048;7.724;2022-12-07T13:29:57;3.87;;;3.67;;
34928;SDS011;21133;48.048;7.724;2022-12-07T13:32:25;5.73;;;4.90;;
34928;SDS011;21133;48.048;7.724;2022-12-07T13:34:51;5.27;;;4.90;;
34928;SDS011;21133;48.048;7.724;2022-12-07T13:39:47;4.57;;;4.37;;
34928;SDS011;21133;48.048;7.724;2022-12-07T13:42:34;4.50;;;4.20;;
34928;SDS011;21133;48.048;7.724;2022-12-07T13:45:22;3.50;;;3.30;;
34928;SDS011;21133;48.048;7.724;2022-12-07T13:47:48;4.50;;;4.30;;
34928;SDS011;21133;48.048;7.724;2022-12-07T13:50:25;3.80;;;3.70;;
34928;SDS011;21133;48.048;7.724;2022-12-07T13:52:54;4.00;;;3.90;;
34928;SDS011;21133;48.048;7.724;2022-12-07T13:55:20;4.30;;;4.00;;
34928;SDS011;21133;48.048;7.724;2022-12-07T13:57:50;3.67;;;3.47;;
34928;SDS011;21133;48.048;7.724;2022-12-07T14:00:17;4.57;;;4.27;;
34928;SDS011;21133;48.048;7.724;2022-12-07T14:02:57;4.13;;;3.83;;
34928;SDS011;21133;48.048;7.724;2022-12-07T14:07:57;6.97;;;6.27;;
34928;SDS011;21133;48.048;7.724;2022-12-07T14:10:27;5.80;;;5.50;;
34928;SDS011;21133;48.048;7.724;2022-12-07T14:12:54;6.73;;;5.80;;
34928;SDS011;21133;48.048;7.724;2022-12-07T14:15:21;5.57;;;5.27;;
34928;SDS011;21133;48.048;7.724;2022-12-07T14:17:51;4.73;;;4.53;;
34928;SDS011;21133;48.048;7.724;2022-12-07T14:20:33;4.30;;;4.10;;
34928;SDS011;21133;48.048;7.724;2022-12-07T14:23:00;8.53;;;5.27;;
34928;SDS011;21133;48.048;7.724;2022-12-07T14:25:34;4.30;;;3.90;;
34928;SDS011;21133;48.048;7.724;2022-12-07T14:28:23;4.73;;;4.23;;
34928;SDS011;21133;48.048;7.724;2022-12-07T14:30:50;17.00;;;9.27;;
34928;SDS011;21133;48.048;7.724;2022-12-07T14:33:16;9.07;;;6.90;;
34928;SDS011;21133;48.048;7.724;2022-12-07T14:35:42;16.13;;;11.60;;
34928;SDS011;21133;48.048;7.724;2022-12-07T14:38:08;24.17;;;10.43;;
34928;SDS011;21133;48.048;7.724;2022-12-07T14:40:34;6.43;;;5.83;;
34928;SDS011;21133;48.048;7.724;2022-12-07T14:43:01;10.87;;;7.10;;
34928;SDS011;21133;48.048;7.724;2022-12-07T14:45:27;22.83;;;8.03;;
34928;SDS011;21133;48.048;7.724;2022-12-07T14:47:53;6.90;;;5.43;;
34928;SDS011;21133;48.048;7.724;2022-12-07T14:50:19;12.50;;;7.23;;
34928;SDS011;21133;48.048;7.724;2022-12-07T14:52:47;7.73;;;6.93;;
34928;SDS011;21133;48.048;7.724;2022-12-07T14:55:24;21.03;;;8.70;;
34928;SDS011;21133;48.048;7.724;2022-12-07T14:57:51;12.00;;;10.50;;
34928;SDS011;21133;48.048;7.724;2022-12-07T15:00:17;31.30;;;18.63;;
34928;SDS011;21133;48.048;7.724;2022-12-07T15:02:44;65.07;;;36.23;;
34928;SDS011;21133;48.048;7.724;2022-12-07T15:05:10;31.70;;;18.50;;
34928;SDS011;21133;48.048;7.724;2022-12-07T15:07:36;18.43;;;15.43;;
34928;SDS011;21133;48.048;7.724;2022-12-07T15:10:03;16.50;;;14.80;;
34928;SDS011;21133;48.048;7.724;2022-12-07T15:12:29;11.03;;;9.83;;
34928;SDS011;21133;48.048;7.724;2022-12-07T15:14:55;9.37;;;8.37;;
34928;SDS011;21133;48.048;7.724;2022-12-07T15:17:21;15.67;;;11.47;;
34928;SDS011;21133;48.048;7.724;2022-12-07T15:19:47;12.17;;;10.00;;
34928;SDS011;21133;48.048;7.724;2022-12-07T15:22:13;20.00;;;11.80;;
34928;SDS011;21133;48.048;7.724;2022-12-07T15:24:39;10.97;;;9.13;;
34928;SDS011;21133;48.048;7.724;2022-12-07T15:27:05;9.97;;;8.83;;
34928;SDS011;21133;48.048;7.724;2022-12-07T15:29:31;13.80;;;9.37;;
34928;SDS011;21133;48.048;7.724;2022-12-07T15:31:56;10.80;;;8.50;;
34928;SDS011;21133;48.048;7.724;2022-12-07T15:34:26;9.17;;;8.07;;
34928;SDS011;21133;48.048;7.724;2022-12-07T15:36:53;9.30;;;7.13;;
34928;SDS011;21133;48.048;7.724;2022-12-07T15:39:19;7.63;;;6.80;;
34928;SDS011;21133;48.048;7.724;2022-12-07T15:41:46;12.27;;;7.40;;
34928;SDS011;21133;48.048;7.724;2022-12-07T15:44:13;11.13;;;7.80;;
34928;SDS011;21133;48.048;7.724;2022-12-07T15:46:58;10.03;;;7.70;;
34928;SDS011;21133;48.048;7.724;2022-12-07T15:49:25;11.10;;;7.80;;
34928;SDS011;21133;48.048;7.724;2022-12-07T15:51:52;12.10;;;8.57;;
34928;SDS011;21133;48.048;7.724;2022-12-07T15:54:19;13.60;;;9.13;;
34928;SDS011;21133;48.048;7.724;2022-12-07T15:56:46;15.90;;;9.00;;
34928;SDS011;21133;48.048;7.724;2022-12-07T15:59:12;13.30;;;10.93;;
34928;SDS011;21133;48.048;7.724;2022-12-07T16:01:38;13.57;;;10.07;;
34928;SDS011;21133;48.048;7.724;2022-12-07T16:04:04;12.90;;;9.20;;
34928;SDS011;21133;48.048;7.724;2022-12-07T16:06:30;13.17;;;8.90;;
34928;SDS011;21133;48.048;7.724;2022-12-07T16:08:56;13.97;;;8.03;;
34928;SDS011;21133;48.048;7.724;2022-12-07T16:11:22;10.90;;;8.33;;
34928;SDS011;21133;48.048;7.724;2022-12-07T16:13:48;13.70;;;9.20;;
34928;SDS011;21133;48.048;7.724;2022-12-07T16:16:15;13.63;;;8.70;;
34928;SDS011;21133;48.048;7.724;2022-12-07T16:18:42;16.17;;;9.07;;
34928;SDS011;21133;48.048;7.724;2022-12-07T16:21:08;14.20;;;8.60;;
34928;SDS011;21133;48.048;7.724;2022-12-07T16:23:34;8.90;;;7.33;;
34928;SDS011;21133;48.048;7.724;2022-12-07T16:26:04;9.77;;;7.50;;
34928;SDS011;21133;48.048;7.724;2022-12-07T16:28:30;8.77;;;7.80;;
34928;SDS011;21133;48.048;7.724;2022-12-07T16:31:29;16.50;;;10.07;;
34928;SDS011;21133;48.048;7.724;2022-12-07T16:33:49;18.87;;;11.17;;
34928;SDS011;21133;48.048;7.724;2022-12-07T16:36:16;13.73;;;9.53;;
34928;SDS011;21133;48.048;7.724;2022-12-07T16:38:43;17.40;;;11.10;;
34928;SDS011;21133;48.048;7.724;2022-12-07T16:41:09;17.57;;;11.10;;